Time;durP1;ratioP1;P1;durP2;ratioP2;P2;SDS_P1;SDS_P2;PMS_P1;PMS_P2;Temp;Humidity;BMP_temperature;BMP_pressure;BME280_temperature;BME280_humidity;BME280_pressure;Samples;Min_cycle;Max_cycle;Signal;HPM_P1;HPM_P2
2022/04/02 00:00:39;;;;;;;38.17;22.97;;;;;;;-1.90;100.00;94331.41;6078041;23;20167;-80
2022/04/02 00:03:05;;;;;;;53.63;22.43;;;;;;;-1.88;100.00;94333.84;6127133;23;20162;-78
2022/04/02 00:05:31;;;;;;;32.43;21.97;;;;;;;-1.87;100.00;94335.47;6102709;23;20649;-79
2022/04/02 00:07:56;;;;;;;30.90;23.30;;;;;;;-2.01;100.00;94333.84;6126471;23;20185;-79
2022/04/02 00:10:22;;;;;;;32.57;23.17;;;;;;;-1.87;100.00;94336.28;6077458;23;20175;-79
2022/04/02 00:12:47;;;;;;;35.50;22.17;;;;;;;-2.03;100.00;94331.41;6076957;23;20161;-79
2022/04/02 00:15:13;;;;;;;32.43;22.17;;;;;;;-1.89;100.00;94329.66;6077067;23;20172;-79
2022/04/02 00:17:38;;;;;;;28.67;20.07;;;;;;;-1.84;100.00;94330.19;6077667;23;20200;-82
2022/04/02 00:20:04;;;;;;;27.27;21.67;;;;;;;-1.78;100.00;94325.47;6127602;23;20156;-80
2022/04/02 00:22:30;;;;;;;25.50;21.10;;;;;;;-1.83;100.00;94326.72;6077092;23;20195;-80
2022/04/02 00:24:55;;;;;;;28.37;20.73;;;;;;;-1.84;100.00;94320.81;6077709;23;20484;-79
2022/04/02 00:27:21;;;;;;;25.63;19.37;;;;;;;-1.96;100.00;94331.00;6078320;23;20174;-79
2022/04/02 00:29:46;;;;;;;25.97;20.50;;;;;;;-2.00;100.00;94331.19;6077874;23;20182;-81
2022/04/02 00:32:12;;;;;;;24.67;19.37;;;;;;;-1.82;100.00;94335.97;6127798;23;20157;-78
2022/04/02 00:34:37;;;;;;;22.57;19.47;;;;;;;-1.90;100.00;94328.84;6077556;23;20202;-77
2022/04/02 00:37:03;;;;;;;21.90;18.30;;;;;;;-2.06;100.00;94331.59;6125337;23;20653;-79
2022/04/02 00:39:30;;;;;;;24.10;19.60;;;;;;;-2.00;100.00;94330.38;6127533;23;20179;-80
2022/04/02 00:41:55;;;;;;;30.23;19.03;;;;;;;-1.93;100.00;94331.63;6077351;23;20214;-80
2022/04/02 00:44:21;;;;;;;42.20;20.60;;;;;;;-2.05;100.00;94328.13;6077721;23;20168;-78
2022/04/02 00:46:47;;;;;;;23.97;18.73;;;;;;;-1.96;100.00;94329.25;6128327;23;20177;-78
2022/04/02 00:49:13;;;;;;;22.13;18.13;;;;;;;-1.87;100.00;94323.56;6101307;23;20155;-80
2022/04/02 00:51:43;;;;;;;71.13;20.90;;;;;;;-2.31;100.00;94327.31;6100488;23;20179;-78
2022/04/02 00:54:14;;;;;;;23.00;18.37;;;;;;;-2.40;100.00;94322.00;6101337;23;20152;-79
2022/04/02 00:56:40;;;;;;;25.47;17.53;;;;;;;-2.24;100.00;94326.91;6101075;23;20172;-79
2022/04/02 00:59:05;;;;;;;26.07;18.27;;;;;;;-2.40;100.00;94334.72;6101379;23;20210;-79
2022/04/02 01:01:34;;;;;;;36.77;20.00;;;;;;;-2.41;100.00;94330.56;6076846;23;20160;-79
2022/04/02 01:04:00;;;;;;;35.67;19.53;;;;;;;-2.29;100.00;94334.84;6101243;23;20156;-77
2022/04/02 01:06:27;;;;;;;33.83;19.33;;;;;;;-2.47;100.00;94331.78;6126805;23;20176;-78
2022/04/02 01:08:52;;;;;;;38.47;19.87;;;;;;;-2.27;100.00;94338.09;6101080;23;20152;-78
2022/04/02 01:11:17;;;;;;;70.50;20.87;;;;;;;-2.25;100.00;94338.00;6100236;23;20656;-79
2022/04/02 01:13:43;;;;;;;25.17;18.90;;;;;;;-2.29;100.00;94334.84;6126957;23;20542;-78
2022/04/02 01:16:08;;;;;;;41.40;20.17;;;;;;;-2.24;100.00;94340.44;6100781;23;20172;-79
2022/04/02 01:18:34;;;;;;;28.87;20.33;;;;;;;-2.20;100.00;94338.53;6100856;23;20175;-79
2022/04/02 01:20:59;;;;;;;25.10;18.37;;;;;;;-2.08;100.00;94341.06;6127152;23;20156;-79
2022/04/02 01:23:28;;;;;;;27.07;18.53;;;;;;;-2.14;100.00;94340.66;6076523;23;20156;-79
2022/04/02 01:25:54;;;;;;;24.50;19.33;;;;;;;-2.07;100.00;94340.16;6101844;23;20179;-79
2022/04/02 01:28:19;;;;;;;30.87;22.03;;;;;;;-1.98;100.00;94346.38;6100988;23;20491;-80
2022/04/02 01:30:45;;;;;;;25.27;19.30;;;;;;;-1.97;100.00;94344.63;6077090;23;20231;-79
2022/04/02 01:33:11;;;;;;;31.43;20.77;;;;;;;-1.89;100.00;94353.38;6076172;23;20160;-80
2022/04/02 01:35:36;;;;;;;25.37;19.80;;;;;;;-1.87;100.00;94350.72;6102816;23;20180;-79
2022/04/02 01:38:01;;;;;;;26.20;18.63;;;;;;;-2.07;100.00;94349.50;6127416;23;20203;-79
2022/04/02 01:40:27;;;;;;;27.73;20.40;;;;;;;-1.95;100.00;94350.41;6079128;23;20163;-80
2022/04/02 01:42:52;;;;;;;29.07;21.57;;;;;;;-1.95;100.00;94350.41;6128242;23;20156;-80
2022/04/02 01:45:17;;;;;;;27.43;20.53;;;;;;;-1.94;100.00;94349.50;6078503;23;20177;-79
2022/04/02 01:47:43;;;;;;;28.27;20.27;;;;;;;-1.92;100.00;94352.78;6102770;23;20159;-79
2022/04/02 01:50:10;;;;;;;25.37;19.77;;;;;;;-1.79;100.00;94363.75;6102542;23;20152;-79
2022/04/02 01:52:36;;;;;;;30.63;21.47;;;;;;;-1.96;100.00;94361.53;6102901;23;20186;-79
2022/04/02 01:55:01;;;;;;;27.57;19.87;;;;;;;-2.03;100.00;94358.59;6103370;23;20156;-79
2022/04/02 01:57:26;;;;;;;25.40;19.23;;;;;;;-2.08;100.00;94355.53;6102987;23;20152;-79
2022/04/02 01:59:51;;;;;;;26.50;18.53;;;;;;;-2.22;100.00;94353.88;6103054;23;20163;-79
2022/04/02 02:02:17;;;;;;;24.03;17.00;;;;;;;-2.22;100.00;94361.50;6078375;23;20186;-79
2022/04/02 02:04:42;;;;;;;23.97;17.97;;;;;;;-2.08;100.00;94363.16;6078244;23;20526;-78
2022/04/02 02:07:08;;;;;;;24.90;19.63;;;;;;;-1.95;100.00;94353.78;6077882;23;20187;-80
2022/04/02 02:09:34;;;;;;;20.17;16.57;;;;;;;-2.03;100.00;94358.59;6078298;23;20595;-79
2022/04/02 02:12:00;;;;;;;23.80;18.13;;;;;;;-1.93;100.00;94356.25;6077159;23;20160;-79
2022/04/02 02:14:26;;;;;;;26.00;17.50;;;;;;;-1.97;100.00;94359.91;6102361;23;20244;-79
2022/04/02 02:16:51;;;;;;;26.17;17.17;;;;;;;-1.91;100.00;94364.59;6102324;23;20198;-79
2022/04/02 02:19:17;;;;;;;22.47;17.97;;;;;;;-2.06;100.00;94366.41;6078599;23;20223;-79
2022/04/02 02:21:42;;;;;;;26.03;18.07;;;;;;;-2.00;100.00;94369.38;6101887;23;20496;-79
2022/04/02 02:24:08;;;;;;;18.90;15.50;;;;;;;-2.06;100.00;94371.50;6103013;23;20233;-79
2022/04/02 02:26:34;;;;;;;19.80;16.83;;;;;;;-2.08;100.00;94374.13;6078731;23;20184;-79
2022/04/02 02:28:59;;;;;;;20.50;16.10;;;;;;;-2.02;100.00;94375.47;6102773;23;20233;-78
2022/04/02 02:31:25;;;;;;;21.27;15.23;;;;;;;-2.05;100.00;94376.47;6077616;23;20168;-79
2022/04/02 02:36:34;;;;;;;20.37;15.93;;;;;;;-2.22;100.00;94376.75;6128575;23;20202;-79
2022/04/02 02:39:00;;;;;;;22.53;15.57;;;;;;;-1.98;100.00;94378.63;6101143;23;20176;-78
2022/04/02 02:41:25;;;;;;;20.70;16.80;;;;;;;-2.09;100.00;94385.22;6101929;23;20167;-79
2022/04/02 02:43:50;;;;;;;17.87;14.23;;;;;;;-2.13;100.00;94381.25;6078717;23;20230;-80
2022/04/02 02:46:17;;;;;;;21.07;15.53;;;;;;;-2.08;100.00;94381.78;6077953;23;20582;-79
2022/04/02 02:48:43;;;;;;;20.57;16.20;;;;;;;-2.15;100.00;94392.44;6102984;23;20155;-80
2022/04/02 02:51:09;;;;;;;18.63;14.93;;;;;;;-2.09;100.00;94392.88;6102043;23;20251;-79
2022/04/02 02:53:34;;;;;;;21.37;15.00;;;;;;;-2.13;100.00;94396.50;6078960;23;20167;-79
2022/04/02 02:55:59;;;;;;;20.70;13.57;;;;;;;-2.19;100.00;94389.28;6079279;23;20179;-79
2022/04/02 02:58:25;;;;;;;19.53;14.77;;;;;;;-2.14;100.00;94399.16;6078726;23;20614;-79
2022/04/02 03:00:50;;;;;;;20.20;14.87;;;;;;;-2.22;100.00;94393.75;6079127;23;20179;-78
2022/04/02 03:03:16;;;;;;;30.43;15.63;;;;;;;-2.20;100.00;94391.94;6077894;23;20167;-79
2022/04/02 03:05:42;;;;;;;19.50;14.57;;;;;;;-2.21;100.00;94392.81;6078745;23;20246;-78
2022/04/02 03:08:08;;;;;;;17.80;14.70;;;;;;;-2.20;100.00;94394.47;6078340;23;20242;-79
2022/04/02 03:10:33;;;;;;;18.77;13.97;;;;;;;-2.14;100.00;94396.59;6101999;23;20190;-79
2022/04/02 03:12:59;;;;;;;20.50;15.47;;;;;;;-2.19;100.00;94393.56;6102004;23;20226;-79
2022/04/02 03:15:25;;;;;;;22.37;15.27;;;;;;;-2.10;100.00;94396.31;6078496;23;20621;-79
2022/04/02 03:17:52;;;;;;;17.97;15.07;;;;;;;-2.05;100.00;94388.38;6102692;23;20195;-80
2022/04/02 03:20:19;;;;;;;17.90;14.23;;;;;;;-2.05;100.00;94394.28;6101919;23;20159;-79
2022/04/02 03:22:46;;;;;;;21.67;15.47;;;;;;;-2.18;100.00;94401.09;6101341;23;20811;-80
2022/04/02 03:25:13;;;;;;;24.40;14.57;;;;;;;-2.13;100.00;94413.50;6126209;23;20223;-79
2022/04/02 03:27:40;;;;;;;20.60;14.60;;;;;;;-2.16;100.00;94406.88;6077824;23;20603;-79
2022/04/02 03:30:07;;;;;;;18.20;14.97;;;;;;;-2.07;100.00;94411.38;6077808;23;20800;-80
2022/04/02 03:32:32;;;;;;;17.07;13.97;;;;;;;-2.17;100.00;94414.63;6125905;23;20164;-78
2022/04/02 03:34:58;;;;;;;20.07;15.07;;;;;;;-2.01;100.00;94411.00;6077961;23;20159;-79
2022/04/02 03:37:24;;;;;;;17.77;13.33;;;;;;;-2.12;100.00;94417.66;6100079;23;20499;-80
2022/04/02 03:39:50;;;;;;;18.63;14.50;;;;;;;-2.11;100.00;94419.31;6102392;23;20159;-80
2022/04/02 03:42:15;;;;;;;17.43;14.17;;;;;;;-2.12;100.00;94433.78;6100565;23;20156;-80
2022/04/02 03:44:41;;;;;;;17.20;13.57;;;;;;;-2.19;100.00;94412.19;6101853;23;20163;-80
2022/04/02 03:47:09;;;;;;;21.53;15.03;;;;;;;-2.15;100.00;94413.59;6101422;23;20187;-81
2022/04/02 03:49:38;;;;;;;16.43;14.47;;;;;;;-2.01;100.00;94420.34;6128160;23;20224;-80
2022/04/02 03:52:04;;;;;;;19.07;14.50;;;;;;;-2.26;100.00;94420.31;6101141;23;20159;-78
2022/04/02 03:54:30;;;;;;;19.23;13.73;;;;;;;-2.26;100.00;94421.09;6077571;23;20160;-79
2022/04/02 03:56:55;;;;;;;21.90;14.23;;;;;;;-2.09;100.00;94418.31;6101859;23;20176;-79
2022/04/02 03:59:20;;;;;;;19.23;13.60;;;;;;;-1.98;100.00;94415.06;6077645;23;20194;-79
2022/04/02 04:01:45;;;;;;;18.27;13.90;;;;;;;-2.14;100.00;94422.84;6100699;23;20168;-80
2022/04/02 04:04:11;;;;;;;19.63;14.37;;;;;;;-2.12;100.00;94426.13;6077668;23;20172;-80
2022/04/02 04:06:37;;;;;;;22.13;14.23;;;;;;;-2.41;100.00;94427.97;6101457;23;20529;-80
2022/04/02 04:09:03;;;;;;;18.20;13.17;;;;;;;-2.28;100.00;94433.13;6078258;23;20160;-80
2022/04/02 04:11:28;;;;;;;18.80;14.90;;;;;;;-2.32;100.00;94432.47;6100955;23;20156;-78
2022/04/02 04:13:59;;;;;;;20.27;13.73;;;;;;;-2.16;100.00;94434.06;6101720;23;20231;-79
2022/04/02 04:16:25;;;;;;;17.10;13.17;;;;;;;-2.32;100.00;94432.47;6078400;23;20179;-79
2022/04/02 04:18:50;;;;;;;16.90;12.67;;;;;;;-2.41;100.00;94442.41;6077468;23;20183;-79
2022/04/02 04:21:15;;;;;;;16.70;13.43;;;;;;;-2.35;100.00;94436.94;6076452;23;20229;-80
2022/04/02 04:23:42;;;;;;;15.67;13.00;;;;;;;-2.34;100.00;94436.03;6100915;23;20167;-81
2022/04/02 04:26:08;;;;;;;19.47;13.07;;;;;;;-2.25;100.00;94435.44;6101532;23;20559;-79
2022/04/02 04:28:33;;;;;;;17.03;13.07;;;;;;;-2.34;100.00;94441.94;6076848;23;20159;-79
2022/04/02 04:30:59;;;;;;;18.33;13.63;;;;;;;-2.58;100.00;94451.09;6076644;23;20172;-79
2022/04/02 04:33:24;;;;;;;18.57;13.57;;;;;;;-2.59;100.00;94444.38;6076410;23;20166;-80
2022/04/02 04:35:49;;;;;;;15.67;12.67;;;;;;;-2.53;100.00;94448.28;6100751;23;20207;-80
2022/04/02 04:38:14;;;;;;;18.00;14.10;;;;;;;-2.58;100.00;94446.81;6099369;23;20183;-79
2022/04/02 04:40:40;;;;;;;21.03;14.47;;;;;;;-2.52;100.00;94439.75;6127250;23;20627;-78
2022/04/02 04:43:07;;;;;;;14.43;11.97;;;;;;;-2.64;100.00;94451.50;6100133;23;20152;-79
2022/04/02 04:45:32;;;;;;;19.07;14.57;;;;;;;-2.68;100.00;94453.41;6077168;23;20190;-80
2022/04/02 04:47:59;;;;;;;18.80;13.90;;;;;;;-2.47;100.00;94458.03;6077179;23;20250;-79
2022/04/02 04:50:24;;;;;;;20.63;13.50;;;;;;;-2.42;100.00;94456.84;6077206;23;20218;-79
2022/04/02 04:52:49;;;;;;;19.93;14.03;;;;;;;-2.43;100.00;94459.50;6127114;23;20159;-79
2022/04/02 04:55:14;;;;;;;21.90;15.33;;;;;;;-2.38;100.00;94460.84;6101205;23;20503;-79
2022/04/02 04:57:40;;;;;;;18.30;14.00;;;;;;;-2.38;100.00;94463.41;6100494;23;20159;-80
2022/04/02 05:00:06;;;;;;;18.57;13.17;;;;;;;-2.35;100.00;94472.56;6076765;23;20168;-79
2022/04/02 05:02:31;;;;;;;17.70;11.80;;;;;;;-2.45;100.00;94479.13;6100333;23;20160;-78
2022/04/02 05:04:56;;;;;;;15.27;12.90;;;;;;;-2.50;100.00;94476.03;6076467;23;20211;-80
2022/04/02 05:07:22;;;;;;;16.17;13.20;;;;;;;-2.41;100.00;94475.47;6076630;23;20246;-79
2022/04/02 05:09:48;;;;;;;17.90;13.00;;;;;;;-2.42;100.00;94484.00;6099927;23;20152;-79
2022/04/02 05:12:14;;;;;;;17.30;12.10;;;;;;;-2.52;100.00;94490.59;6075265;23;20246;-79
2022/04/02 05:14:39;;;;;;;18.90;12.27;;;;;;;-2.51;100.00;94487.13;6076861;23;20164;-78
2022/04/02 05:17:05;;;;;;;15.70;12.93;;;;;;;-2.43;100.00;94482.38;6100368;23;20178;-80
2022/04/02 05:19:31;;;;;;;14.63;11.77;;;;;;;-2.44;100.00;94488.38;6052149;23;20339;-79
2022/04/02 05:21:56;;;;;;;17.40;12.70;;;;;;;-2.48;100.00;94486.94;6099078;23;20179;-79
2022/04/02 05:24:22;;;;;;;18.83;13.20;;;;;;;-2.44;100.00;94486.66;6100063;23;20494;-79
2022/04/02 05:26:49;;;;;;;17.70;13.03;;;;;;;-2.49;100.00;94495.47;6075255;23;20184;-79
2022/04/02 05:29:14;;;;;;;15.57;11.93;;;;;;;-2.33;100.00;94491.06;6075352;23;20170;-79
2022/04/02 05:31:41;;;;;;;14.93;11.80;;;;;;;-2.42;100.00;94492.44;6099909;23;20144;-77
2022/04/02 05:34:07;;;;;;;16.87;12.27;;;;;;;-2.40;100.00;94503.34;6099573;23;20160;-79
2022/04/02 05:36:33;;;;;;;14.70;11.20;;;;;;;-2.41;100.00;94498.34;6076337;23;20190;-79
2022/04/02 05:38:58;;;;;;;13.53;11.87;;;;;;;-2.26;100.00;94506.75;6076201;23;20191;-79
2022/04/02 05:41:24;;;;;;;14.90;11.77;;;;;;;-2.37;100.00;94510.78;6074380;23;20599;-79
2022/04/02 05:43:49;;;;;;;13.83;11.17;;;;;;;-2.31;100.00;94510.38;6075980;23;20542;-81
2022/04/02 05:46:15;;;;;;;14.10;11.93;;;;;;;-2.42;100.00;94517.06;6075410;23;20258;-80
2022/04/02 05:48:40;;;;;;;15.70;11.67;;;;;;;-2.40;100.00;94513.50;6098942;23;20590;-79
2022/04/02 05:51:05;;;;;;;15.10;11.50;;;;;;;-2.37;100.00;94520.16;6124943;23;20172;-78
2022/04/02 05:53:31;;;;;;;14.33;10.30;;;;;;;-2.45;100.00;94524.88;6074937;23;20160;-80
2022/04/02 05:55:56;;;;;;;15.03;9.97;;;;;;;-2.30;100.00;94529.00;6074831;23;20187;-80
2022/04/02 05:58:21;;;;;;;13.00;10.97;;;;;;;-2.25;100.00;94527.00;6099380;23;20639;-80
2022/04/02 06:00:49;;;;;;;14.83;11.30;;;;;;;-2.37;100.00;94530.31;6099314;23;20156;-80
2022/04/02 06:03:15;;;;;;;12.57;9.40;;;;;;;-2.42;100.00;94538.22;6098722;23;20156;-80
2022/04/02 06:05:41;;;;;;;13.20;10.80;;;;;;;-2.43;100.00;94543.41;6099821;23;20502;-80
2022/04/02 06:08:06;;;;;;;14.10;10.67;;;;;;;-2.38;100.00;94539.69;6075672;23;20247;-80
2022/04/02 06:10:32;;;;;;;13.30;10.70;;;;;;;-2.48;100.00;94542.84;6125422;23;20163;-81
2022/04/02 06:12:57;;;;;;;13.07;9.87;;;;;;;-2.31;100.00;94546.00;6124419;23;20156;-79
2022/04/02 06:15:24;;;;;;;15.70;11.83;;;;;;;-2.34;100.00;94541.09;6097694;23;20187;-80
2022/04/02 06:17:50;;;;;;;17.57;12.17;;;;;;;-2.29;100.00;94549.28;6100295;23;20180;-80
2022/04/02 06:20:15;;;;;;;26.90;15.53;;;;;;;-2.28;100.00;94552.63;6100659;23;20152;-79
2022/04/02 06:22:41;;;;;;;15.60;11.47;;;;;;;-2.35;100.00;94559.00;6100360;23;20152;-81
2022/04/02 06:25:06;;;;;;;17.43;12.80;;;;;;;-2.49;100.00;94559.03;6076897;23;20650;-80
2022/04/02 06:27:32;;;;;;;14.17;11.03;;;;;;;-2.26;100.00;94553.34;6077386;23;20156;-80
2022/04/02 06:29:58;;;;;;;11.83;9.53;;;;;;;-2.35;100.00;94553.91;6076627;23;20216;-79
2022/04/02 06:32:24;;;;;;;13.67;10.50;;;;;;;-2.30;100.00;94564.59;6100744;23;20152;-79
2022/04/02 06:34:49;;;;;;;11.13;8.97;;;;;;;-2.52;100.00;94570.19;6100921;23;20148;-81
2022/04/02 06:37:15;;;;;;;14.17;11.20;;;;;;;-2.38;100.00;94567.66;6100894;23;20166;-81
2022/04/02 06:39:40;;;;;;;11.80;10.53;;;;;;;-2.04;100.00;94568.09;6077071;23;20233;-81
2022/04/02 06:42:06;;;;;;;12.10;9.17;;;;;;;-2.18;100.00;94575.78;6101242;23;20510;-80
2022/04/02 06:44:31;;;;;;;11.70;9.97;;;;;;;-1.96;100.00;94575.25;6125277;23;20152;-79
2022/04/02 06:46:57;;;;;;;11.13;8.70;;;;;;;-2.14;100.00;94574.66;6124785;23;20183;-79
2022/04/02 06:49:22;;;;;;;13.93;9.23;;;;;;;-2.04;100.00;94576.53;6076852;23;20160;-80
2022/04/02 06:51:47;;;;;;;13.00;9.27;;;;;;;-2.03;100.00;94583.28;6124728;23;20242;-80
2022/04/02 06:54:13;;;;;;;11.43;9.00;;;;;;;-2.03;100.00;94585.81;6100903;23;20172;-79
2022/04/02 06:56:38;;;;;;;10.67;8.73;;;;;;;-2.04;100.00;94590.97;6124849;23;20506;-81
2022/04/02 06:59:03;;;;;;;14.73;9.03;;;;;;;-2.05;100.00;94592.72;6100624;23;20643;-79
2022/04/02 07:01:29;;;;;;;11.03;7.97;;;;;;;-2.12;100.00;94590.63;6124461;23;20180;-79
2022/04/02 07:03:54;;;;;;;18.67;10.87;;;;;;;-2.14;100.00;94590.72;6126746;23;20168;-80
2022/04/02 07:06:19;;;;;;;17.00;10.90;;;;;;;-2.18;100.00;94602.03;6101300;23;20222;-79
2022/04/02 07:08:45;;;;;;;14.47;10.77;;;;;;;-2.28;100.00;94604.31;6126133;23;20490;-79
2022/04/02 07:11:10;;;;;;;10.57;9.00;;;;;;;-2.09;100.00;94615.91;6075811;23;20259;-79
2022/04/02 07:13:35;;;;;;;17.30;10.20;;;;;;;-1.85;100.00;94618.66;6126356;23;20156;-82
2022/04/02 07:16:02;;;;;;;21.37;14.30;;;;;;;-1.98;100.00;94617.78;6099241;23;20184;-80
2022/04/02 07:18:27;;;;;;;17.60;11.43;;;;;;;-2.12;100.00;94626.25;6076749;23;20206;-80
2022/04/02 07:20:53;;;;;;;14.47;10.87;;;;;;;-2.02;100.00;94627.34;6100703;23;20592;-79
2022/04/02 07:23:19;;;;;;;14.47;11.17;;;;;;;-2.05;100.00;94630.88;6100027;23;20156;-78
2022/04/02 07:25:45;;;;;;;19.37;12.90;;;;;;;-2.00;100.00;94630.59;6100292;23;20584;-80
2022/04/02 07:28:11;;;;;;;13.17;9.60;;;;;;;-1.84;100.00;94641.47;6076851;23;20168;-80
2022/04/02 07:30:37;;;;;;;15.00;10.10;;;;;;;-1.86;100.00;94637.38;6077094;23;20186;-81
2022/04/02 07:33:04;;;;;;;11.93;9.07;;;;;;;-1.98;100.00;94644.03;6100185;23;20182;-79
2022/04/02 07:35:42;;;;;;;17.00;11.53;;;;;;;-1.82;100.00;94643.91;6076107;23;20661;-81
2022/04/02 07:38:12;;;;;;;15.00;10.57;;;;;;;-1.72;100.00;94650.88;6076219;23;20177;-79
2022/04/02 07:40:49;;;;;;;10.53;8.23;;;;;;;-2.28;100.00;94652.63;6100449;23;20133;-78
2022/04/02 07:43:53;;;;;;;12.00;8.03;;;;;;;-2.02;100.00;94663.78;6075277;23;20161;-78
2022/04/02 07:46:21;;;;;;;11.47;7.83;;;;;;;-2.13;100.00;94676.31;6036179;23;20182;-79
2022/04/02 07:48:50;;;;;;;12.57;8.60;;;;;;;-2.25;100.00;94674.50;6013193;23;20197;-77
2022/04/02 07:51:18;;;;;;;13.40;9.40;;;;;;;-1.84;100.00;94673.75;5989342;23;20169;-79
2022/04/02 07:53:49;;;;;;;8.10;5.53;;;;;;;-2.18;100.00;94683.41;6012200;23;20995;-79
2022/04/02 07:56:30;;;;;;;12.07;9.17;;;;;;;-2.12;100.00;94683.06;6012602;23;20359;-78
2022/04/02 07:59:00;;;;;;;10.90;8.53;;;;;;;-1.96;100.00;94689.75;6012581;23;20193;-78
2022/04/02 08:01:26;;;;;;;13.83;10.17;;;;;;;-1.92;100.00;94678.47;6035730;23;20177;-79
2022/04/02 08:03:52;;;;;;;11.63;9.90;;;;;;;-1.88;100.00;94687.53;5989185;23;20162;-79
2022/04/02 08:06:19;;;;;;;10.70;9.07;;;;;;;-1.74;100.00;94687.53;6036278;23;20178;-79
2022/04/02 08:08:45;;;;;;;12.43;8.73;;;;;;;-1.91;100.00;94695.38;6036475;23;20295;-78
2022/04/02 08:11:11;;;;;;;10.93;9.17;;;;;;;-1.76;100.00;94697.00;6017287;23;20161;-78
2022/04/02 08:13:38;;;;;;;10.07;7.23;;;;;;;-1.81;100.00;94699.81;6039947;23;20150;-76
2022/04/02 08:16:03;;;;;;;11.03;8.40;;;;;;;-2.35;100.00;94702.22;6046357;23;20226;-76
2022/04/02 08:18:29;;;;;;;12.67;9.87;;;;;;;-1.87;100.00;94697.63;6124590;23;20211;-77
2022/04/02 08:20:55;;;;;;;17.80;11.73;;;;;;;-1.69;100.00;94705.03;6098618;23;20164;-78
2022/04/02 08:23:20;;;;;;;13.33;9.67;;;;;;;-1.94;100.00;94711.66;6120560;23;20159;-78
2022/04/02 08:26:11;;;;;;;13.10;9.90;;;;;;;-1.89;100.00;94713.91;6124772;23;20180;-77
2022/04/02 08:29:10;;;;;;;13.03;10.47;;;;;;;-1.57;100.00;94714.50;6121880;23;20191;-77
2022/04/02 08:32:03;;;;;;;13.30;9.60;;;;;;;-1.45;100.00;94717.06;6126826;23;20268;-77
2022/04/02 08:34:45;;;;;;;13.43;10.03;;;;;;;-1.28;99.64;94726.22;6103555;23;20144;-77
2022/04/02 08:37:28;;;;;;;13.83;11.73;;;;;;;-1.57;99.21;94733.13;6102129;23;20167;-78
2022/04/02 08:40:09;;;;;;;14.83;11.37;;;;;;;-1.58;99.36;94731.50;6151794;23;20168;-76
2022/04/02 08:43:10;;;;;;;16.23;11.90;;;;;;;-1.21;98.30;94730.00;6102653;23;20219;-76
2022/04/02 08:45:47;;;;;;;11.77;10.27;;;;;;;-1.28;96.62;94735.59;6126971;23;20185;-77
2022/04/02 08:48:22;;;;;;;13.70;10.10;;;;;;;-1.28;98.02;94753.41;6127227;23;20147;-77
2022/04/02 08:50:51;;;;;;;13.87;10.87;;;;;;;-1.11;96.04;94750.63;6127341;23;20148;-77
2022/04/02 08:53:20;;;;;;;12.53;10.20;;;;;;;-1.27;97.29;94749.97;6125861;23;20152;-77
2022/04/02 08:55:48;;;;;;;11.37;9.27;;;;;;;-1.51;99.14;94755.66;6102376;23;20298;-77
2022/04/02 08:58:44;;;;;;;12.93;9.77;;;;;;;-1.56;99.67;94764.50;6120564;23;20206;-78
2022/04/02 09:01:11;;;;;;;14.10;9.80;;;;;;;-1.37;98.44;94766.72;6125471;23;20133;-78
2022/04/02 09:04:01;;;;;;;12.10;9.43;;;;;;;-1.98;99.80;94761.06;6105980;23;20168;-83
2022/04/02 09:06:49;;;;;;;15.43;10.63;;;;;;;-1.66;99.79;94771.88;6103059;23;20180;-79
2022/04/02 09:09:41;;;;;;;12.57;10.47;;;;;;;-1.68;100.00;94771.13;6075432;23;20152;-79
2022/04/02 09:12:36;;;;;;;16.30;11.77;;;;;;;-1.87;100.00;94775.69;6100252;23;20211;-82
2022/04/02 09:15:14;;;;;;;16.50;10.67;;;;;;;-2.09;100.00;94779.53;6082204;23;20223;-82
2022/04/02 09:18:02;;;;;;;14.20;11.60;;;;;;;-1.92;100.00;94782.81;6100107;23;20136;-82
2022/04/02 09:20:51;;;;;;;17.77;13.10;;;;;;;-1.83;100.00;94787.34;6101555;23;20198;-81
2022/04/02 09:23:42;;;;;;;15.17;11.93;;;;;;;-1.18;96.04;94802.88;6099743;23;20219;-81
2022/04/02 09:26:23;;;;;;;19.97;13.07;;;;;;;-0.97;95.26;94799.00;6077546;23;20194;-81
2022/04/02 09:29:07;;;;;;;23.07;16.27;;;;;;;-0.96;95.71;94800.66;6077239;23;20158;-82
2022/04/02 09:31:42;;;;;;;21.43;14.60;;;;;;;-1.03;94.17;94801.13;6125727;23;20157;-79
2022/04/02 09:34:16;;;;;;;14.03;10.30;;;;;;;-1.33;96.13;94806.38;6100265;23;20147;-81
2022/04/02 09:37:08;;;;;;;14.77;10.67;;;;;;;-0.99;93.88;94807.66;6127123;23;20171;-81
2022/04/02 09:40:04;;;;;;;11.80;10.23;;;;;;;-1.24;96.25;94816.00;6077528;23;20260;-82
2022/04/02 09:42:30;;;;;;;12.60;10.00;;;;;;;-1.09;95.15;94806.59;6100304;23;20202;-81
2022/04/02 09:45:04;;;;;;;13.07;10.47;;;;;;;-1.22;95.02;94817.56;6101527;23;20604;-81
2022/04/02 09:48:03;;;;;;;15.33;10.63;;;;;;;-0.93;92.91;94820.84;6127692;23;20163;-79
2022/04/02 09:50:29;;;;;;;37.93;23.23;;;;;;;-1.17;93.47;94817.25;6072178;23;20170;-81
2022/04/02 09:53:09;;;;;;;16.23;12.30;;;;;;;-0.99;91.41;94825.47;6125909;23;20160;-81
2022/04/02 09:55:44;;;;;;;15.30;12.13;;;;;;;-1.32;94.53;94819.03;6078300;23;20348;-81
2022/04/02 09:58:24;;;;;;;15.87;9.80;;;;;;;-1.42;96.11;94826.38;6104117;23;20159;-80
2022/04/02 10:00:57;;;;;;;15.50;10.90;;;;;;;-0.92;93.74;94822.47;6103480;23;20164;-81
2022/04/02 10:03:48;;;;;;;11.17;9.13;;;;;;;-1.18;93.43;94823.25;6078842;23;20200;-82
2022/04/02 10:06:25;;;;;;;12.67;9.33;;;;;;;-1.05;91.68;94831.00;6103439;23;20177;-81
2022/04/02 10:09:04;;;;;;;12.87;10.20;;;;;;;-0.82;92.22;94819.34;6103925;23;20149;-82
2022/04/02 10:11:30;;;;;;;10.37;9.27;;;;;;;-0.85;91.67;94833.09;6128336;23;20144;-80
2022/04/02 10:14:00;;;;;;;9.23;7.03;;;;;;;-1.28;93.00;94828.09;6079335;23;20524;-81
2022/04/02 10:16:26;;;;;;;11.60;9.93;;;;;;;-0.52;91.28;94830.16;6079063;23;20184;-80
2022/04/02 10:18:53;;;;;;;13.03;8.93;;;;;;;-0.32;89.84;94829.69;6077253;23;20189;-81
2022/04/02 10:21:19;;;;;;;11.13;9.30;;;;;;;-0.80;92.32;94837.91;6078189;23;20167;-81
2022/04/02 10:23:51;;;;;;;13.27;9.73;;;;;;;-1.07;94.65;94836.16;6078380;23;20162;-81
2022/04/02 10:26:21;;;;;;;11.00;8.93;;;;;;;-0.74;92.26;94852.81;6079560;23;20236;-81
2022/04/02 10:29:05;;;;;;;14.47;10.40;;;;;;;-0.80;93.45;94843.00;6103048;23;20160;-80
2022/04/02 10:31:33;;;;;;;11.23;8.50;;;;;;;-1.52;94.38;94853.31;6102400;23;20153;-82
2022/04/02 10:34:11;;;;;;;13.50;9.53;;;;;;;-1.04;94.20;94838.53;6102546;23;20166;-82
2022/04/02 10:36:44;;;;;;;15.13;10.17;;;;;;;-0.81;93.03;94849.81;6104964;23;20223;-81
2022/04/02 10:39:10;;;;;;;12.17;9.13;;;;;;;-0.84;94.38;94846.66;6079036;23;20188;-82
2022/04/02 10:41:39;;;;;;;11.53;9.50;;;;;;;-1.04;93.80;94840.25;6078240;23;20558;-82
2022/04/02 10:44:24;;;;;;;11.00;9.77;;;;;;;-1.72;95.60;94856.25;6078547;23;20225;-81
2022/04/02 10:46:52;;;;;;;17.73;11.33;;;;;;;-1.45;94.99;94851.22;6080039;23;20179;-80
2022/04/02 10:49:26;;;;;;;13.07;10.17;;;;;;;-1.72;95.80;94864.69;6080329;23;20165;-80
2022/04/02 10:51:53;;;;;;;13.63;10.67;;;;;;;-1.71;95.83;94856.16;6102641;23;20481;-81
2022/04/02 10:54:28;;;;;;;11.97;10.33;;;;;;;-1.37;95.42;94866.88;6078991;23;20157;-81
2022/04/02 10:56:55;;;;;;;13.60;10.37;;;;;;;-1.59;94.30;94869.06;6102800;23;20168;-81
2022/04/02 10:59:21;;;;;;;10.83;9.03;;;;;;;-1.29;93.39;94866.41;6103523;23;20184;-81
2022/04/02 11:01:50;;;;;;;11.80;9.57;;;;;;;-1.18;93.37;94869.13;6127392;23;20160;-81
2022/04/02 11:04:27;;;;;;;11.40;10.20;;;;;;;-1.23;93.04;94871.16;6079156;23;21077;-82
2022/04/02 11:06:53;;;;;;;10.57;9.47;;;;;;;-1.18;93.82;94871.66;6078046;23;20179;-78
2022/04/02 11:09:39;;;;;;;14.63;10.33;;;;;;;-1.12;94.30;94875.59;6100514;23;20152;-80
2022/04/02 11:12:08;;;;;;;12.23;9.83;;;;;;;-1.07;93.56;94869.28;6100733;23;20153;-79
2022/04/02 11:14:45;;;;;;;15.13;9.17;;;;;;;-1.77;93.84;94884.53;6101529;23;20202;-80
2022/04/02 11:17:31;;;;;;;12.00;9.90;;;;;;;-1.47;93.80;94881.88;6073924;23;20561;-78
2022/04/02 11:20:11;;;;;;;16.83;11.10;;;;;;;-1.94;96.05;94883.84;6076107;23;20717;-81
2022/04/02 11:23:15;;;;;;;12.43;10.23;;;;;;;-1.85;95.47;94886.69;6101326;23;20166;-80